sensor_id;sensor_type;location;lat;lon;timestamp;pressure;altitude;pressure_sealevel;temperature;humidity
55590;BME280;41452;42.780;23.116;2023-04-19T00:02:18;93954.09;;;9.10;100.00
55590;BME280;41452;42.780;23.116;2023-04-19T00:04:44;93953.28;;;9.09;100.00
55590;BME280;41452;42.780;23.116;2023-04-19T00:07:11;93929.75;;;8.86;100.00
55590;BME280;41452;42.780;23.116;2023-04-19T00:09:37;93952.41;;;8.92;100.00
55590;BME280;41452;42.780;23.116;2023-04-19T00:12:03;93917.81;;;8.66;100.00
55590;BME280;41452;42.780;23.116;2023-04-19T00:14:28;93951.75;;;8.85;100.00
55590;BME280;41452;42.780;23.116;2023-04-19T00:16:54;93906.53;;;8.54;100.00
55590;BME280;41452;42.780;23.116;2023-04-19T00:19:19;93944.91;;;8.72;100.00
55590;BME280;41452;42.780;23.116;2023-04-19T00:21:46;93947.84;;;8.75;100.00
55590;BME280;41452;42.780;23.116;2023-04-19T00:24:12;93944.91;;;8.72;100.00
55590;BME280;41452;42.780;23.116;2023-04-19T00:26:37;93936.13;;;8.66;100.00
55590;BME280;41452;42.780;23.116;2023-04-19T00:29:02;93941.59;;;8.65;100.00
55590;BME280;41452;42.780;23.116;2023-04-19T00:31:28;93939.56;;;8.55;100.00
55590;BME280;41452;42.780;23.116;2023-04-19T00:33:53;93934.50;;;8.42;100.00
55590;BME280;41452;42.780;23.116;2023-04-19T00:36:18;93930.91;;;8.43;100.00
55590;BME280;41452;42.780;23.116;2023-04-19T00:38:44;93839.16;;;7.78;100.00
55590;BME280;41452;42.780;23.116;2023-04-19T00:41:10;93895.69;;;8.03;100.00
55590;BME280;41452;42.780;23.116;2023-04-19T00:43:35;93917.53;;;8.09;100.00
55590;BME280;41452;42.780;23.116;2023-04-19T00:46:01;93940.16;;;8.15;100.00
55590;BME280;41452;42.780;23.116;2023-04-19T00:48:26;93937.41;;;8.10;100.00
55590;BME280;41452;42.780;23.116;2023-04-19T00:50:52;93902.38;;;7.87;100.00
55590;BME280;41452;42.780;23.116;2023-04-19T00:53:18;93939.31;;;8.03;100.00
55590;BME280;41452;42.780;23.116;2023-04-19T00:55:43;93930.66;;;7.90;100.00
55590;BME280;41452;42.780;23.116;2023-04-19T00:58:09;93917.44;;;7.85;100.00
55590;BME280;41452;42.780;23.116;2023-04-19T01:00:35;93929.50;;;7.86;100.00
55590;BME280;41452;42.780;23.116;2023-04-19T01:03:01;93929.47;;;7.74;100.00
55590;BME280;41452;42.780;23.116;2023-04-19T01:05:26;93922.44;;;7.75;100.00
55590;BME280;41452;42.780;23.116;2023-04-19T01:07:52;93922.31;;;7.70;100.00
55590;BME280;41452;42.780;23.116;2023-04-19T01:10:17;93898.16;;;7.56;100.00
55590;BME280;41452;42.780;23.116;2023-04-19T01:12:43;93928.47;;;7.75;100.00
55590;BME280;41452;42.780;23.116;2023-04-19T01:15:09;93934.47;;;7.76;100.00
55590;BME280;41452;42.780;23.116;2023-04-19T01:17:34;93873.91;;;7.37;100.00
55590;BME280;41452;42.780;23.116;2023-04-19T01:20:04;93930.16;;;7.70;100.00
55590;BME280;41452;42.780;23.116;2023-04-19T01:22:33;93920.56;;;7.64;100.00
55590;BME280;41452;42.780;23.116;2023-04-19T01:24:59;93920.13;;;7.67;100.00
55590;BME280;41452;42.780;23.116;2023-04-19T01:27:25;93912.91;;;7.50;100.00
55590;BME280;41452;42.780;23.116;2023-04-19T01:29:50;93922.81;;;7.60;100.00
55590;BME280;41452;42.780;23.116;2023-04-19T01:32:16;93915.88;;;7.54;100.00
55590;BME280;41452;42.780;23.116;2023-04-19T01:34:41;93918.72;;;7.52;100.00
55590;BME280;41452;42.780;23.116;2023-04-19T01:37:07;93915.66;;;7.55;100.00
55590;BME280;41452;42.780;23.116;2023-04-19T01:39:32;93857.69;;;7.16;100.00
55590;BME280;41452;42.780;23.116;2023-04-19T01:41:58;93912.38;;;7.60;100.00
55590;BME280;41452;42.780;23.116;2023-04-19T01:44:23;93923.03;;;7.58;100.00
55590;BME280;41452;42.780;23.116;2023-04-19T01:46:49;93920.97;;;7.49;100.00
55590;BME280;41452;42.780;23.116;2023-04-19T01:49:14;93893.50;;;7.46;100.00
55590;BME280;41452;42.780;23.116;2023-04-19T01:51:40;93905.78;;;7.57;100.00
55590;BME280;41452;42.780;23.116;2023-04-19T01:54:05;93896.22;;;7.51;100.00
55590;BME280;41452;42.780;23.116;2023-04-19T01:56:31;93897.47;;;7.49;100.00
55590;BME280;41452;42.780;23.116;2023-04-19T01:58:57;93870.44;;;7.24;100.00
55590;BME280;41452;42.780;23.116;2023-04-19T02:01:22;93909.06;;;7.53;100.00
55590;BME280;41452;42.780;23.116;2023-04-19T02:03:47;93911.88;;;7.51;100.00
55590;BME280;41452;42.780;23.116;2023-04-19T02:06:13;93886.31;;;7.41;100.00
55590;BME280;41452;42.780;23.116;2023-04-19T02:08:39;93901.44;;;7.51;100.00
55590;BME280;41452;42.780;23.116;2023-04-19T02:11:08;93895.84;;;7.48;100.00
55590;BME280;41452;42.780;23.116;2023-04-19T02:13:34;93893.38;;;7.53;100.00
55590;BME280;41452;42.780;23.116;2023-04-19T02:16:00;93900.22;;;7.54;100.00
55590;BME280;41452;42.780;23.116;2023-04-19T02:18:27;93899.84;;;7.50;100.00
55590;BME280;41452;42.780;23.116;2023-04-19T02:20:57;93907.69;;;7.50;100.00
55590;BME280;41452;42.780;23.116;2023-04-19T02:23:23;93904.03;;;7.51;100.00
55590;BME280;41452;42.780;23.116;2023-04-19T02:25:49;93820.00;;;6.94;100.00
55590;BME280;41452;42.780;23.116;2023-04-19T02:28:14;93911.09;;;7.51;100.00
55590;BME280;41452;42.780;23.116;2023-04-19T02:30:40;93888.56;;;7.38;100.00
55590;BME280;41452;42.780;23.116;2023-04-19T02:33:05;93898.56;;;7.41;100.00
55590;BME280;41452;42.780;23.116;2023-04-19T02:35:30;93907.19;;;7.41;100.00
55590;BME280;41452;42.780;23.116;2023-04-19T02:37:56;93876.63;;;7.30;100.00
55590;BME280;41452;42.780;23.116;2023-04-19T02:40:21;93812.63;;;6.91;100.00
55590;BME280;41452;42.780;23.116;2023-04-19T02:42:48;93903.13;;;7.46;100.00
55590;BME280;41452;42.780;23.116;2023-04-19T02:45:13;93901.91;;;7.48;100.00
55590;BME280;41452;42.780;23.116;2023-04-19T02:47:39;93904.16;;;7.45;100.00
55590;BME280;41452;42.780;23.116;2023-04-19T02:50:05;93872.47;;;7.22;100.00
55590;BME280;41452;42.780;23.116;2023-04-19T02:52:30;93820.91;;;6.88;100.00
55590;BME280;41452;42.780;23.116;2023-04-19T02:54:55;93874.50;;;7.20;100.00
55590;BME280;41452;42.780;23.116;2023-04-19T02:57:21;93841.31;;;6.91;100.00
55590;BME280;41452;42.780;23.116;2023-04-19T02:59:46;93897.72;;;7.29;100.00
55590;BME280;41452;42.780;23.116;2023-04-19T03:02:12;93897.94;;;7.27;100.00
55590;BME280;41452;42.780;23.116;2023-04-19T03:04:37;93895.03;;;7.17;100.00
55590;BME280;41452;42.780;23.116;2023-04-19T03:07:02;93894.19;;;7.23;100.00
55590;BME280;41452;42.780;23.116;2023-04-19T03:09:28;93891.19;;;7.19;100.00
55590;BME280;41452;42.780;23.116;2023-04-19T03:11:53;93897.44;;;7.18;100.00
55590;BME280;41452;42.780;23.116;2023-04-19T03:14:19;93898.31;;;7.12;100.00
55590;BME280;41452;42.780;23.116;2023-04-19T03:16:44;93895.69;;;7.12;100.00
55590;BME280;41452;42.780;23.116;2023-04-19T03:19:10;93904.72;;;7.16;100.00
55590;BME280;41452;42.780;23.116;2023-04-19T03:21:35;93896.06;;;7.16;100.00
55590;BME280;41452;42.780;23.116;2023-04-19T03:24:01;93800.22;;;6.56;100.00
55590;BME280;41452;42.780;23.116;2023-04-19T03:26:26;93894.25;;;7.16;100.00
55590;BME280;41452;42.780;23.116;2023-04-19T03:28:51;93868.72;;;7.00;100.00
55590;BME280;41452;42.780;23.116;2023-04-19T03:31:17;93900.06;;;7.18;100.00
55590;BME280;41452;42.780;23.116;2023-04-19T03:33:42;93841.50;;;6.77;100.00
55590;BME280;41452;42.780;23.116;2023-04-19T03:36:08;93899.63;;;7.21;100.00
55590;BME280;41452;42.780;23.116;2023-04-19T03:38:33;93859.19;;;6.94;100.00
55590;BME280;41452;42.780;23.116;2023-04-19T03:40:59;93909.47;;;7.19;100.00
55590;BME280;41452;42.780;23.116;2023-04-19T03:43:24;93907.47;;;7.21;100.00
55590;BME280;41452;42.780;23.116;2023-04-19T03:45:50;93904.50;;;7.18;100.00
55590;BME280;41452;42.780;23.116;2023-04-19T03:48:15;93905.50;;;7.17;100.00
55590;BME280;41452;42.780;23.116;2023-04-19T03:50:41;93904.25;;;7.19;100.00
55590;BME280;41452;42.780;23.116;2023-04-19T03:53:06;93910.72;;;7.17;100.00
55590;BME280;41452;42.780;23.116;2023-04-19T03:55:32;93901.28;;;7.16;100.00
55590;BME280;41452;42.780;23.116;2023-04-19T03:57:57;93905.63;;;7.22;100.00
55590;BME280;41452;42.780;23.116;2023-04-19T04:00:22;93873.16;;;6.99;100.00
55590;BME280;41452;42.780;23.116;2023-04-19T04:02:48;93909.47;;;7.19;100.00
55590;BME280;41452;42.780;23.116;2023-04-19T04:05:13;93870.50;;;6.88;100.00
55590;BME280;41452;42.780;23.116;2023-04-19T04:07:39;93867.66;;;6.89;100.00
55590;BME280;41452;42.780;23.116;2023-04-19T04:10:05;93915.59;;;7.13;100.00
55590;BME280;41452;42.780;23.116;2023-04-19T04:12:30;93916.00;;;7.10;100.00
55590;BME280;41452;42.780;23.116;2023-04-19T04:14:56;93894.13;;;6.93;100.00
55590;BME280;41452;42.780;23.116;2023-04-19T04:17:21;93914.50;;;7.02;100.00
55590;BME280;41452;42.780;23.116;2023-04-19T04:19:48;93891.97;;;6.90;100.00
55590;BME280;41452;42.780;23.116;2023-04-19T04:22:14;93916.91;;;7.04;100.00
55590;BME280;41452;42.780;23.116;2023-04-19T04:24:40;93913.84;;;7.07;100.00
55590;BME280;41452;42.780;23.116;2023-04-19T04:27:07;93883.31;;;6.89;100.00
55590;BME280;41452;42.780;23.116;2023-04-19T04:29:36;93917.63;;;7.11;100.00
55590;BME280;41452;42.780;23.116;2023-04-19T04:32:06;93920.59;;;7.15;100.00
55590;BME280;41452;42.780;23.116;2023-04-19T04:34:33;93917.19;;;7.14;100.00
55590;BME280;41452;42.780;23.116;2023-04-19T04:36:59;93911.50;;;7.17;100.00
55590;BME280;41452;42.780;23.116;2023-04-19T04:39:25;93898.31;;;7.12;100.00
55590;BME280;41452;42.780;23.116;2023-04-19T04:41:50;93912.09;;;7.19;100.00
55590;BME280;41452;42.780;23.116;2023-04-19T04:44:17;93903.88;;;7.16;100.00
55590;BME280;41452;42.780;23.116;2023-04-19T04:46:44;93913.53;;;7.15;100.00
55590;BME280;41452;42.780;23.116;2023-04-19T04:49:10;93879.97;;;6.82;100.00
55590;BME280;41452;42.780;23.116;2023-04-19T04:51:36;93917.41;;;7.13;100.00
55590;BME280;41452;42.780;23.116;2023-04-19T04:54:01;93915.59;;;7.13;100.00
55590;BME280;41452;42.780;23.116;2023-04-19T04:56:27;93911.16;;;7.14;100.00
55590;BME280;41452;42.780;23.116;2023-04-19T04:58:52;93920.81;;;7.13;100.00
55590;BME280;41452;42.780;23.116;2023-04-19T05:01:18;93918.41;;;7.12;100.00
55590;BME280;41452;42.780;23.116;2023-04-19T05:03:44;93915.22;;;7.10;100.00
55590;BME280;41452;42.780;23.116;2023-04-19T05:06:10;93906.75;;;7.14;100.00
55590;BME280;41452;42.780;23.116;2023-04-19T05:08:35;93909.72;;;7.18;100.00
55590;BME280;41452;42.780;23.116;2023-04-19T05:11:01;93924.00;;;7.15;100.00
55590;BME280;41452;42.780;23.116;2023-04-19T05:13:26;93921.16;;;7.17;100.00
55590;BME280;41452;42.780;23.116;2023-04-19T05:15:52;93920.53;;;7.21;100.00
55590;BME280;41452;42.780;23.116;2023-04-19T05:18:17;93925.88;;;7.27;100.00
55590;BME280;41452;42.780;23.116;2023-04-19T05:20:42;93888.41;;;7.02;100.00
55590;BME280;41452;42.780;23.116;2023-04-19T05:23:08;93921.03;;;7.30;100.00
55590;BME280;41452;42.780;23.116;2023-04-19T05:25:35;93881.06;;;7.11;100.00
55590;BME280;41452;42.780;23.116;2023-04-19T05:28:01;93926.06;;;7.43;100.00
55590;BME280;41452;42.780;23.116;2023-04-19T05:30:27;93930.50;;;7.43;100.00
55590;BME280;41452;42.780;23.116;2023-04-19T05:32:53;93932.75;;;7.39;100.00
55590;BME280;41452;42.780;23.116;2023-04-19T05:35:18;93928.41;;;7.33;100.00
55590;BME280;41452;42.780;23.116;2023-04-19T05:37:44;93936.81;;;7.35;100.00
55590;BME280;41452;42.780;23.116;2023-04-19T05:40:10;93934.28;;;7.29;100.00
55590;BME280;41452;42.780;23.116;2023-04-19T05:42:36;93885.56;;;7.04;100.00
55590;BME280;41452;42.780;23.116;2023-04-19T05:45:02;93920.59;;;7.15;100.00
55590;BME280;41452;42.780;23.116;2023-04-19T05:47:28;93931.38;;;7.37;100.00
55590;BME280;41452;42.780;23.116;2023-04-19T05:49:53;93879.56;;;7.03;100.00
55590;BME280;41452;42.780;23.116;2023-04-19T05:52:19;93931.16;;;7.38;100.00
55590;BME280;41452;42.780;23.116;2023-04-19T05:54:44;93918.63;;;7.29;100.00
55590;BME280;41452;42.780;23.116;2023-04-19T05:57:09;93937.91;;;7.46;100.00
55590;BME280;41452;42.780;23.116;2023-04-19T05:59:35;93928.69;;;7.43;100.00
55590;BME280;41452;42.780;23.116;2023-04-19T06:02:00;93930.19;;;7.51;100.00
55590;BME280;41452;42.780;23.116;2023-04-19T06:04:26;93899.88;;;7.32;100.00
55590;BME280;41452;42.780;23.116;2023-04-19T06:06:51;93932.72;;;7.58;100.00
55590;BME280;41452;42.780;23.116;2023-04-19T06:09:17;93926.41;;;7.47;100.00
55590;BME280;41452;42.780;23.116;2023-04-19T06:11:43;93887.78;;;7.19;100.00
55590;BME280;41452;42.780;23.116;2023-04-19T06:14:10;93927.00;;;7.49;100.00
55590;BME280;41452;42.780;23.116;2023-04-19T06:16:36;93934.97;;;7.54;100.00
55590;BME280;41452;42.780;23.116;2023-04-19T06:19:01;93934.31;;;7.59;100.00
55590;BME280;41452;42.780;23.116;2023-04-19T06:21:32;93934.22;;;7.66;100.00
55590;BME280;41452;42.780;23.116;2023-04-19T06:23:58;93929.13;;;7.71;100.00
55590;BME280;41452;42.780;23.116;2023-04-19T06:26:23;93935.38;;;7.70;100.00
55590;BME280;41452;42.780;23.116;2023-04-19T06:28:48;93935.72;;;7.73;100.00
55590;BME280;41452;42.780;23.116;2023-04-19T06:31:14;93936.88;;;7.77;100.00
55590;BME280;41452;42.780;23.116;2023-04-19T06:33:39;93937.09;;;7.76;100.00
55590;BME280;41452;42.780;23.116;2023-04-19T06:36:05;93923.09;;;7.70;100.00
55590;BME280;41452;42.780;23.116;2023-04-19T06:38:31;93940.41;;;7.83;100.00
55590;BME280;41452;42.780;23.116;2023-04-19T06:40:56;93932.97;;;7.68;100.00
55590;BME280;41452;42.780;23.116;2023-04-19T06:43:21;93944.75;;;7.89;100.00
55590;BME280;41452;42.780;23.116;2023-04-19T06:45:47;93949.09;;;7.95;100.00
55590;BME280;41452;42.780;23.116;2023-04-19T06:48:12;93868.94;;;7.47;100.00
55590;BME280;41452;42.780;23.116;2023-04-19T06:50:37;93949.66;;;7.97;100.00
55590;BME280;41452;42.780;23.116;2023-04-19T06:53:03;93950.13;;;8.06;100.00
55590;BME280;41452;42.780;23.116;2023-04-19T06:55:28;93932.53;;;8.02;100.00
55590;BME280;41452;42.780;23.116;2023-04-19T06:57:54;93947.78;;;8.16;100.00
55590;BME280;41452;42.780;23.116;2023-04-19T07:00:21;93926.47;;;8.01;100.00
55590;BME280;41452;42.780;23.116;2023-04-19T07:02:48;93954.50;;;8.12;100.00
55590;BME280;41452;42.780;23.116;2023-04-19T07:05:13;93940.16;;;8.15;100.00
55590;BME280;41452;42.780;23.116;2023-04-19T07:07:39;93946.78;;;8.17;100.00
55590;BME280;41452;42.780;23.116;2023-04-19T07:10:07;93949.03;;;8.14;100.00
55590;BME280;41452;42.780;23.116;2023-04-19T07:12:33;93850.78;;;7.52;100.00
55590;BME280;41452;42.780;23.116;2023-04-19T07:14:58;93957.00;;;8.19;100.00
55590;BME280;41452;42.780;23.116;2023-04-19T07:17:23;93948.56;;;8.17;100.00
55590;BME280;41452;42.780;23.116;2023-04-19T07:19:49;93874.22;;;7.71;100.00
55590;BME280;41452;42.780;23.116;2023-04-19T07:22:14;93953.59;;;8.30;100.00
55590;BME280;41452;42.780;23.116;2023-04-19T07:24:40;93925.03;;;8.17;100.00
55590;BME280;41452;42.780;23.116;2023-04-19T07:27:07;93954.06;;;8.39;100.00
55590;BME280;41452;42.780;23.116;2023-04-19T07:29:36;93898.06;;;8.05;100.00
55590;BME280;41452;42.780;23.116;2023-04-19T07:32:02;93955.13;;;8.50;100.00
55590;BME280;41452;42.780;23.116;2023-04-19T07:34:28;93946.31;;;8.32;100.00
55590;BME280;41452;42.780;23.116;2023-04-19T07:36:53;93964.00;;;8.49;100.00
55590;BME280;41452;42.780;23.116;2023-04-19T07:39:18;93917.78;;;8.19;100.00
55590;BME280;41452;42.780;23.116;2023-04-19T07:41:44;93959.69;;;8.43;100.00
55590;BME280;41452;42.780;23.116;2023-04-19T07:44:11;93965.94;;;8.53;100.00
55590;BME280;41452;42.780;23.116;2023-04-19T07:46:38;93962.06;;;8.56;100.00
55590;BME280;41452;42.780;23.116;2023-04-19T07:49:03;93964.16;;;8.66;100.00
55590;BME280;41452;42.780;23.116;2023-04-19T07:51:28;93960.25;;;8.68;100.00
55590;BME280;41452;42.780;23.116;2023-04-19T07:53:54;93947.41;;;8.55;100.00
55590;BME280;41452;42.780;23.116;2023-04-19T07:56:21;93977.34;;;8.71;100.00
55590;BME280;41452;42.780;23.116;2023-04-19T07:58:46;93968.13;;;8.68;100.00
55590;BME280;41452;42.780;23.116;2023-04-19T08:01:12;93954.91;;;8.51;100.00
55590;BME280;41452;42.780;23.116;2023-04-19T08:03:37;93972.78;;;8.66;100.00
55590;BME280;41452;42.780;23.116;2023-04-19T08:06:04;93976.78;;;8.57;100.00
55590;BME280;41452;42.780;23.116;2023-04-19T08:08:30;93971.19;;;8.53;100.00
55590;BME280;41452;42.780;23.116;2023-04-19T08:10:56;93974.84;;;8.64;100.00
55590;BME280;41452;42.780;23.116;2023-04-19T08:13:21;93975.06;;;8.63;100.00
55590;BME280;41452;42.780;23.116;2023-04-19T08:15:47;93944.91;;;8.48;100.00
55590;BME280;41452;42.780;23.116;2023-04-19T08:18:12;93964.50;;;8.69;100.00
55590;BME280;41452;42.780;23.116;2023-04-19T08:20:38;93969.97;;;8.80;100.00
55590;BME280;41452;42.780;23.116;2023-04-19T08:23:06;93969.81;;;8.86;100.00
55590;BME280;41452;42.780;23.116;2023-04-19T08:25:32;93964.91;;;8.90;100.00
55590;BME280;41452;42.780;23.116;2023-04-19T08:27:58;93967.53;;;9.02;100.00
55590;BME280;41452;42.780;23.116;2023-04-19T08:30:23;93966.66;;;8.96;100.00
55590;BME280;41452;42.780;23.116;2023-04-19T08:32:49;93956.97;;;8.97;100.00
55590;BME280;41452;42.780;23.116;2023-04-19T08:35:15;93912.03;;;8.76;100.00
55590;BME280;41452;42.780;23.116;2023-04-19T08:37:41;93957.28;;;9.12;100.00
55590;BME280;41452;42.780;23.116;2023-04-19T08:40:07;93954.44;;;8.90;100.00
55590;BME280;41452;42.780;23.116;2023-04-19T08:42:32;93957.28;;;9.00;100.00
55590;BME280;41452;42.780;23.116;2023-04-19T08:45:01;93956.72;;;8.98;100.00
55590;BME280;41452;42.780;23.116;2023-04-19T08:47:33;93947.38;;;9.02;100.00
55590;BME280;41452;42.780;23.116;2023-04-19T08:50:01;93953.06;;;9.11;100.00
55590;BME280;41452;42.780;23.116;2023-04-19T08:52:26;93949.75;;;9.16;100.00
55590;BME280;41452;42.780;23.116;2023-04-19T08:54:53;93914.94;;;9.03;100.00
55590;BME280;41452;42.780;23.116;2023-04-19T08:57:19;93926.19;;;9.16;100.00
55590;BME280;41452;42.780;23.116;2023-04-19T08:59:45;93940.16;;;9.33;100.00
55590;BME280;41452;42.780;23.116;2023-04-19T09:02:13;93859.63;;;8.88;100.00
55590;BME280;41452;42.780;23.116;2023-04-19T09:04:39;93936.16;;;9.42;100.00
55590;BME280;41452;42.780;23.116;2023-04-19T09:07:04;93931.91;;;9.41;100.00
55590;BME280;41452;42.780;23.116;2023-04-19T09:09:32;93938.56;;;9.61;100.00
55590;BME280;41452;42.780;23.116;2023-04-19T09:11:57;93886.03;;;9.39;100.00
55590;BME280;41452;42.780;23.116;2023-04-19T09:14:25;93933.63;;;9.76;100.00
55590;BME280;41452;42.780;23.116;2023-04-19T09:16:51;93932.59;;;9.77;100.00
55590;BME280;41452;42.780;23.116;2023-04-19T09:19:17;93931.13;;;9.69;100.00
55590;BME280;41452;42.780;23.116;2023-04-19T09:21:43;93936.63;;;9.68;100.00
55590;BME280;41452;42.780;23.116;2023-04-19T09:24:08;93875.66;;;9.32;100.00
55590;BME280;41452;42.780;23.116;2023-04-19T09:26:34;93928.50;;;9.69;100.00
55590;BME280;41452;42.780;23.116;2023-04-19T09:29:06;93848.88;;;9.42;100.00
55590;BME280;41452;42.780;23.116;2023-04-19T09:31:33;93928.66;;;10.08;100.00
55590;BME280;41452;42.780;23.116;2023-04-19T09:34:16;93933.72;;;10.27;100.00
55590;BME280;41452;42.780;23.116;2023-04-19T09:36:42;93934.59;;;10.50;100.00
55590;BME280;41452;42.780;23.116;2023-04-19T09:39:08;93928.72;;;10.59;100.00
55590;BME280;41452;42.780;23.116;2023-04-19T09:41:35;93932.38;;;10.58;100.00
55590;BME280;41452;42.780;23.116;2023-04-19T09:44:14;93928.00;;;10.64;99.99
55590;BME280;41452;42.780;23.116;2023-04-19T09:46:40;93861.09;;;10.16;99.90
55590;BME280;41452;42.780;23.116;2023-04-19T09:51:47;93896.44;;;10.59;99.57
55590;BME280;41452;42.780;23.116;2023-04-19T09:54:14;93926.13;;;10.81;97.44
55590;BME280;41452;42.780;23.116;2023-04-19T09:56:40;93926.59;;;10.95;98.04
55590;BME280;41452;42.780;23.116;2023-04-19T09:59:07;93914.81;;;10.98;94.96
55590;BME280;41452;42.780;23.116;2023-04-19T10:04:04;93927.13;;;11.14;95.11
55590;BME280;41452;42.780;23.116;2023-04-19T10:06:31;93926.19;;;11.03;96.13
55590;BME280;41452;42.780;23.116;2023-04-19T10:09:00;93901.31;;;10.89;95.22
55590;BME280;41452;42.780;23.116;2023-04-19T10:11:32;93922.94;;;10.96;95.51
55590;BME280;41452;42.780;23.116;2023-04-19T10:14:04;93878.22;;;10.52;95.31
55590;BME280;41452;42.780;23.116;2023-04-19T10:16:31;93917.00;;;10.84;96.01
55590;BME280;41452;42.780;23.116;2023-04-19T10:18:57;93912.91;;;10.93;95.18
55590;BME280;41452;42.780;23.116;2023-04-19T10:21:23;93913.16;;;11.14;94.67
55590;BME280;41452;42.780;23.116;2023-04-19T10:23:51;93916.59;;;11.14;91.71
55590;BME280;41452;42.780;23.116;2023-04-19T10:26:17;93905.53;;;11.12;95.27
55590;BME280;41452;42.780;23.116;2023-04-19T10:28:42;93908.97;;;11.13;93.78
55590;BME280;41452;42.780;23.116;2023-04-19T10:31:11;93910.44;;;11.03;92.88
55590;BME280;41452;42.780;23.116;2023-04-19T10:33:37;93901.88;;;11.13;92.74
55590;BME280;41452;42.780;23.116;2023-04-19T10:36:03;93900.44;;;11.28;94.01
55590;BME280;41452;42.780;23.116;2023-04-19T10:38:36;93890.53;;;11.57;95.28
55590;BME280;41452;42.780;23.116;2023-04-19T10:41:02;93873.31;;;11.44;90.51
55590;BME280;41452;42.780;23.116;2023-04-19T10:43:32;93886.47;;;11.71;92.12
55590;BME280;41452;42.780;23.116;2023-04-19T10:46:12;93863.66;;;11.50;89.90
55590;BME280;41452;42.780;23.116;2023-04-19T10:48:40;93882.19;;;11.65;90.35
55590;BME280;41452;42.780;23.116;2023-04-19T10:51:18;93876.25;;;11.75;90.96
55590;BME280;41452;42.780;23.116;2023-04-19T10:54:54;93880.00;;;12.06;90.98
55590;BME280;41452;42.780;23.116;2023-04-19T10:57:08;93873.28;;;12.21;87.91
55590;BME280;41452;42.780;23.116;2023-04-19T10:59:36;93879.22;;;12.43;87.58
55590;BME280;41452;42.780;23.116;2023-04-19T11:02:03;93868.47;;;12.50;86.08
55590;BME280;41452;42.780;23.116;2023-04-19T11:06:55;93869.81;;;12.58;85.14
55590;BME280;41452;42.780;23.116;2023-04-19T11:09:28;93874.03;;;12.53;84.17
55590;BME280;41452;42.780;23.116;2023-04-19T11:12:01;93866.63;;;12.50;86.76
55590;BME280;41452;42.780;23.116;2023-04-19T11:14:30;93859.81;;;12.54;83.53
55590;BME280;41452;42.780;23.116;2023-04-19T11:16:56;93873.56;;;12.62;86.12
55590;BME280;41452;42.780;23.116;2023-04-19T11:19:22;93844.63;;;12.29;86.71
55590;BME280;41452;42.780;23.116;2023-04-19T11:21:48;93866.00;;;12.33;85.58
55590;BME280;41452;42.780;23.116;2023-04-19T11:24:14;93831.34;;;12.14;85.38
55590;BME280;41452;42.780;23.116;2023-04-19T11:26:44;93866.19;;;12.64;87.79
55590;BME280;41452;42.780;23.116;2023-04-19T11:29:10;93863.81;;;12.62;86.45
55590;BME280;41452;42.780;23.116;2023-04-19T11:31:36;93861.34;;;12.50;80.93
55590;BME280;41452;42.780;23.116;2023-04-19T11:34:02;93855.72;;;12.74;84.16
55590;BME280;41452;42.780;23.116;2023-04-19T11:36:28;93794.41;;;12.41;81.84
55590;BME280;41452;42.780;23.116;2023-04-19T11:38:53;93864.69;;;12.78;80.75
55590;BME280;41452;42.780;23.116;2023-04-19T11:41:19;93857.59;;;12.84;83.41
55590;BME280;41452;42.780;23.116;2023-04-19T11:43:45;93827.00;;;12.78;80.28
55590;BME280;41452;42.780;23.116;2023-04-19T11:46:12;93849.84;;;13.20;81.63
55590;BME280;41452;42.780;23.116;2023-04-19T11:48:38;93854.38;;;13.29;79.85
55590;BME280;41452;42.780;23.116;2023-04-19T11:51:04;93853.09;;;13.32;78.71
55590;BME280;41452;42.780;23.116;2023-04-19T11:53:31;93846.53;;;13.45;81.54
55590;BME280;41452;42.780;23.116;2023-04-19T11:56:03;93851.69;;;13.19;79.07
55590;BME280;41452;42.780;23.116;2023-04-19T11:58:36;93859.44;;;13.31;80.80
55590;BME280;41452;42.780;23.116;2023-04-19T12:01:10;93858.56;;;13.20;79.45
55590;BME280;41452;42.780;23.116;2023-04-19T12:03:40;93850.13;;;13.18;81.79
55590;BME280;41452;42.780;23.116;2023-04-19T12:06:14;93853.91;;;13.38;81.00
55590;BME280;41452;42.780;23.116;2023-04-19T12:08:48;93846.56;;;13.60;80.71
55590;BME280;41452;42.780;23.116;2023-04-19T12:11:15;93838.88;;;13.43;76.09
55590;BME280;41452;42.780;23.116;2023-04-19T12:13:43;93843.63;;;13.52;75.59
55590;BME280;41452;42.780;23.116;2023-04-19T12:16:10;93849.72;;;13.62;76.10
55590;BME280;41452;42.780;23.116;2023-04-19T12:18:49;93838.94;;;13.69;76.40
55590;BME280;41452;42.780;23.116;2023-04-19T12:21:26;93836.06;;;13.91;77.13
55590;BME280;41452;42.780;23.116;2023-04-19T12:23:55;93831.81;;;13.75;73.62
55590;BME280;41452;42.780;23.116;2023-04-19T12:26:21;93809.09;;;13.58;74.85
55590;BME280;41452;42.780;23.116;2023-04-19T12:28:47;93839.75;;;13.80;74.15
55590;BME280;41452;42.780;23.116;2023-04-19T12:31:12;93838.16;;;13.79;75.13
55590;BME280;41452;42.780;23.116;2023-04-19T12:33:37;93839.75;;;13.80;75.15
55590;BME280;41452;42.780;23.116;2023-04-19T12:36:03;93828.66;;;13.88;74.78
55590;BME280;41452;42.780;23.116;2023-04-19T12:38:29;93828.66;;;13.78;70.87
55590;BME280;41452;42.780;23.116;2023-04-19T12:40:54;93824.72;;;13.96;73.58
55590;BME280;41452;42.780;23.116;2023-04-19T12:43:19;93815.50;;;14.03;75.29
55590;BME280;41452;42.780;23.116;2023-04-19T12:45:45;93798.56;;;13.94;72.21
55590;BME280;41452;42.780;23.116;2023-04-19T12:48:10;93823.94;;;14.05;74.62
55590;BME280;41452;42.780;23.116;2023-04-19T12:50:35;93818.09;;;13.73;71.26
55590;BME280;41452;42.780;23.116;2023-04-19T12:53:01;93815.19;;;13.69;75.26
55590;BME280;41452;42.780;23.116;2023-04-19T12:55:26;93757.31;;;13.26;72.02